Terminal Aerodrome Forecast
Issued by NWS

Home | Current Version | Previous Version | Text Only | Print | Product List | Glossary Off
Versions: 1 2 3 4 5 6 7 8 9 10 11 12 13 14 15 16 17 18 19 20 21 22 23 24 25 26 27 28

000
FTUS43 KGRB 052300
TAFRHI
TAF
KRHI 052334Z 0600/0624 12008KT P6SM BKN250
     FM060500 10005KT P6SM SCT070 BKN110
     FM061100 11006KT P6SM BKN020 OVC040
     FM062100 13008KT P6SM SCT025=

USA.gov is the U.S. government's official web portal to all federal, state and local government web resources and services.